createdAt,value
2022-10-17T00:01:09.686Z,3.00
2022-10-17T00:06:15.899Z,2.00
2022-10-17T00:11:21.874Z,2.00
2022-10-17T00:16:25.805Z,2.25
2022-10-17T00:21:28.438Z,1.00
2022-10-17T00:26:32.685Z,1.75
2022-10-17T00:31:35.780Z,1.50
2022-10-17T00:36:38.614Z,2.00
2022-10-17T00:41:42.638Z,1.75
2022-10-17T00:46:45.287Z,2.00
2022-10-17T00:51:51.851Z,2.25
2022-10-17T00:56:56.474Z,2.00
2022-10-17T01:02:04.371Z,2.00
2022-10-17T01:07:07.016Z,1.75
2022-10-17T01:12:20.593Z,2.00
2022-10-17T01:17:34.040Z,1.25
2022-10-17T01:22:42.991Z,1.25
2022-10-17T01:28:15.063Z,2.00
2022-10-17T01:33:29.486Z,1.25
2022-10-17T01:38:37.569Z,1.00
2022-10-17T01:43:45.105Z,2.00
2022-10-17T01:48:49.239Z,1.00
2022-10-17T01:53:57.981Z,1.00
2022-10-17T01:59:06.002Z,2.00
2022-10-17T02:04:11.839Z,1.00
2022-10-17T02:09:20.216Z,2.00
2022-10-17T02:14:34.094Z,1.25
2022-10-17T02:19:49.002Z,2.00
2022-10-17T02:25:01.492Z,1.50
2022-10-17T02:30:10.219Z,0.75
2022-10-17T02:35:16.615Z,1.00
2022-10-17T02:40:22.831Z,1.00
2022-10-17T02:45:29.694Z,2.00
2022-10-17T02:50:44.282Z,1.00
2022-10-17T02:55:54.613Z,1.25
2022-10-17T03:00:57.774Z,1.00
2022-10-17T03:06:01.866Z,1.25
2022-10-17T03:11:04.647Z,1.75
2022-10-17T03:16:08.815Z,1.00
2022-10-17T03:21:13.602Z,1.00
2022-10-17T03:26:16.598Z,1.25
2022-10-17T03:31:19.283Z,1.75
2022-10-17T03:36:24.374Z,2.00
2022-10-17T03:41:27.253Z,1.25
2022-10-17T03:46:30.392Z,1.50
2022-10-17T03:51:37.134Z,1.00
2022-10-17T03:56:44.997Z,2.00
2022-10-17T04:01:51.305Z,2.00
2022-10-17T04:06:56.310Z,2.00
2022-10-17T04:11:59.065Z,2.00
2022-10-17T04:17:01.841Z,1.00
2022-10-17T04:22:08.438Z,2.25
2022-10-17T04:27:13.675Z,1.25
2022-10-17T04:32:20.404Z,2.00
2022-10-17T04:37:33.329Z,1.50
2022-10-17T04:42:41.627Z,1.00
2022-10-17T04:47:46.307Z,1.75
2022-10-17T04:52:50.378Z,1.00
2022-10-17T04:57:53.097Z,2.00
2022-10-17T05:02:56.985Z,1.00
2022-10-17T05:08:01.042Z,1.75
2022-10-17T05:13:08.555Z,1.00
2022-10-17T05:18:11.705Z,1.00
2022-10-17T05:23:18.443Z,2.00
2022-10-17T05:28:21.269Z,1.00
2022-10-17T05:33:24.384Z,1.50
2022-10-17T05:38:29.159Z,1.50
2022-10-17T05:43:33.218Z,1.00
2022-10-17T05:48:36.357Z,1.00
2022-10-17T05:53:41.720Z,1.00
2022-10-17T05:58:53.372Z,1.00
2022-10-17T06:04:13.548Z,1.75
2022-10-17T06:09:18.173Z,1.00
2022-10-17T06:14:23.936Z,1.00
2022-10-17T06:19:31.315Z,1.00
2022-10-17T06:24:35.436Z,1.00
2022-10-17T06:29:40.396Z,1.00
2022-10-17T06:34:43.099Z,0.25
2022-10-17T06:39:47.899Z,1.00
2022-10-17T06:44:54.705Z,1.25
2022-10-17T06:49:57.431Z,0.00
2022-10-17T06:55:27.704Z,1.00
2022-10-17T07:00:56.385Z,3.00
2022-10-17T07:06:01.481Z,2.50
2022-10-17T07:11:11.430Z,3.00
2022-10-17T07:16:15.517Z,3.00
2022-10-17T07:21:19.715Z,4.00
2022-10-17T07:26:23.888Z,2.50
2022-10-17T07:31:26.661Z,2.50
2022-10-17T07:36:29.988Z,3.00
2022-10-17T07:41:35.497Z,2.00
2022-10-17T07:46:39.914Z,3.00
2022-10-17T07:51:43.266Z,4.00
2022-10-17T07:56:50.653Z,3.00
2022-10-17T08:01:56.483Z,2.00
2022-10-17T08:07:11.656Z,3.00
2022-10-17T08:12:24.322Z,2.50
2022-10-17T08:17:26.957Z,2.00
2022-10-17T08:22:29.976Z,3.75
2022-10-17T08:27:34.955Z,2.00
2022-10-17T08:32:37.578Z,2.00
2022-10-17T08:37:40.156Z,2.00
2022-10-17T08:43:01.236Z,2.00
2022-10-17T08:48:09.407Z,2.00
2022-10-17T08:53:20.008Z,2.25
2022-10-17T08:58:26.185Z,2.00
2022-10-17T09:03:57.578Z,1.50
2022-10-17T09:09:16.769Z,2.00
2022-10-17T09:14:41.264Z,2.00
2022-10-17T09:19:50.104Z,2.25
2022-10-17T09:24:57.045Z,2.00
2022-10-17T09:30:40.134Z,1.00
2022-10-17T09:35:42.943Z,2.50
2022-10-17T09:40:47.176Z,2.00
2022-10-17T09:46:02.479Z,2.00
2022-10-17T09:51:15.090Z,2.00
2022-10-17T09:56:28.297Z,2.00
2022-10-17T10:01:34.920Z,1.75
2022-10-17T10:06:38.008Z,2.75
2022-10-17T10:11:48.867Z,1.75
2022-10-17T10:16:54.562Z,1.75
2022-10-17T10:21:58.952Z,2.75
2022-10-17T10:27:04.064Z,2.00
2022-10-17T10:32:19.755Z,2.75
2022-10-17T10:37:24.454Z,2.00
2022-10-17T10:42:30.607Z,1.50
2022-10-17T10:47:34.985Z,3.00
2022-10-17T10:52:44.756Z,2.00
2022-10-17T10:57:50.704Z,2.00
2022-10-17T11:03:03.976Z,2.75
2022-10-17T11:08:16.256Z,2.00
2022-10-17T11:13:24.405Z,2.50
2022-10-17T11:18:34.405Z,2.00
2022-10-17T11:23:42.462Z,2.00
2022-10-17T11:28:45.135Z,3.00
2022-10-17T11:33:53.188Z,2.75
2022-10-17T11:39:01.216Z,4.00
2022-10-17T11:44:08.668Z,4.00
2022-10-17T11:49:20.381Z,2.00
2022-10-17T11:54:27.725Z,3.00
2022-10-17T11:59:55.033Z,3.00
2022-10-17T12:05:05.657Z,3.00
2022-10-17T12:10:21.031Z,2.00
2022-10-17T12:15:32.472Z,3.25
2022-10-17T12:20:38.108Z,2.75
2022-10-17T12:25:50.694Z,3.00
2022-10-17T12:30:57.342Z,2.00
2022-10-17T12:36:43.039Z,2.50
2022-10-17T12:41:56.203Z,3.00
2022-10-17T12:46:59.996Z,3.00
2022-10-17T12:52:16.061Z,2.25
2022-10-17T12:57:24.983Z,3.00
2022-10-17T13:02:31.459Z,2.00
2022-10-17T13:07:35.568Z,2.75
2022-10-17T13:12:41.309Z,2.50
2022-10-17T13:17:44.201Z,3.25
2022-10-17T13:22:47.021Z,3.00
2022-10-17T13:27:53.667Z,2.75
2022-10-17T13:32:56.969Z,3.00
2022-10-17T13:38:03.399Z,2.00
2022-10-17T13:43:16.367Z,2.00
2022-10-17T13:48:22.714Z,2.33
2022-10-17T13:53:32.750Z,2.00
2022-10-17T13:58:43.488Z,2.00
2022-10-17T14:03:48.991Z,2.25
2022-10-17T14:09:00.517Z,1.75
2022-10-17T14:14:07.174Z,2.00
2022-10-17T14:19:24.168Z,1.25
2022-10-17T14:24:31.532Z,1.00
2022-10-17T14:29:54.270Z,1.75
2022-10-17T14:35:17.779Z,1.00
2022-10-17T14:40:24.789Z,1.50
2022-10-17T14:45:31.479Z,2.00
2022-10-17T14:50:36.206Z,2.50
2022-10-17T14:55:41.332Z,1.00
2022-10-17T15:00:45.447Z,2.00
2022-10-17T15:05:48.486Z,3.00
2022-10-17T15:10:52.679Z,2.00
2022-10-17T15:15:56.713Z,3.00
2022-10-17T15:21:04.969Z,2.50
2022-10-17T15:26:17.461Z,2.00
2022-10-17T15:31:24.282Z,1.25
2022-10-17T15:36:28.913Z,3.00
2022-10-17T15:41:33.159Z,2.00
2022-10-17T15:46:37.363Z,3.00
2022-10-17T15:51:40.474Z,2.00
2022-10-17T15:56:44.398Z,3.00
2022-10-17T16:01:49.159Z,3.25
2022-10-17T16:06:51.769Z,3.00
2022-10-17T16:11:54.480Z,4.00
2022-10-17T16:16:59.072Z,3.00
2022-10-17T16:22:04.695Z,3.00
2022-10-17T16:27:07.470Z,4.00
2022-10-17T16:32:11.708Z,4.00
2022-10-17T16:37:14.360Z,4.25
2022-10-17T16:42:17.005Z,5.00
2022-10-17T16:47:21.064Z,6.00
2022-10-17T16:52:23.993Z,5.00
2022-10-17T16:57:26.769Z,4.50
2022-10-17T17:02:31.059Z,3.75
2022-10-17T17:07:34.194Z,3.75
2022-10-17T17:12:37.703Z,4.00
2022-10-17T17:17:52.393Z,4.00
2022-10-17T17:22:57.557Z,3.00
2022-10-17T17:28:00.292Z,6.00
2022-10-17T17:33:04.547Z,4.75
2022-10-17T17:38:07.514Z,5.50
2022-10-17T17:43:10.269Z,5.00
2022-10-17T17:48:14.863Z,6.50
2022-10-17T17:53:18.927Z,7.00
2022-10-17T17:58:21.526Z,6.25
2022-10-17T18:03:26.328Z,4.75
2022-10-17T18:08:29.146Z,5.25
2022-10-17T18:13:32.280Z,5.00
2022-10-17T18:18:37.243Z,4.00
2022-10-17T18:23:40.317Z,5.00
2022-10-17T18:28:44.470Z,5.00
2022-10-17T18:33:48.596Z,5.25
2022-10-17T18:38:51.349Z,5.00
2022-10-17T18:43:56.033Z,5.75
2022-10-17T18:49:00.152Z,5.00
2022-10-17T18:54:03.598Z,4.00
2022-10-17T18:59:06.211Z,5.50
2022-10-17T19:04:10.944Z,5.00
2022-10-17T19:09:15.292Z,4.75
2022-10-17T19:14:18.022Z,5.00
2022-10-17T19:19:24.005Z,4.00
2022-10-17T19:24:28.652Z,4.75
2022-10-17T19:29:32.961Z,6.00
2022-10-17T19:34:37.558Z,5.00
2022-10-17T19:39:40.363Z,4.00
2022-10-17T19:44:43.045Z,5.00
2022-10-17T19:49:49.979Z,4.50
2022-10-17T19:54:53.035Z,4.00
2022-10-17T19:59:56.138Z,5.50
2022-10-17T20:05:17.640Z,5.75
2022-10-17T20:10:21.500Z,4.00
2022-10-17T20:15:24.154Z,5.00
2022-10-17T20:20:29.163Z,4.00
2022-10-17T20:25:33.306Z,4.75
2022-10-17T20:30:36.430Z,4.00
2022-10-17T20:35:43.282Z,4.00
2022-10-17T20:40:46.410Z,4.00
2022-10-17T20:45:51.409Z,4.00
2022-10-17T20:50:56.294Z,4.25
2022-10-17T20:56:03.755Z,3.00
2022-10-17T21:01:08.115Z,4.00
2022-10-17T21:06:12.425Z,5.00
2022-10-17T21:11:17.315Z,4.00
2022-10-17T21:16:20.680Z,3.50
2022-10-17T21:21:27.464Z,4.50
2022-10-17T21:26:32.644Z,3.33
2022-10-17T21:31:36.828Z,4.00
2022-10-17T21:36:41.528Z,4.50
2022-10-17T21:41:45.243Z,3.25
2022-10-17T21:46:48.683Z,3.75
2022-10-17T21:51:53.914Z,2.50
2022-10-17T21:56:56.548Z,3.00
2022-10-17T22:01:59.308Z,4.00
2022-10-17T22:07:03.346Z,4.00
2022-10-17T22:12:06.201Z,3.00
2022-10-17T22:17:08.825Z,3.25
2022-10-17T22:22:12.866Z,3.75
2022-10-17T22:27:15.682Z,3.75
2022-10-17T22:32:21.548Z,4.25
2022-10-17T22:37:26.591Z,3.00
2022-10-17T22:42:31.275Z,3.00
2022-10-17T22:47:33.989Z,4.00
2022-10-17T22:52:38.013Z,3.25
2022-10-17T22:57:41.365Z,2.75
2022-10-17T23:02:44.432Z,2.75
2022-10-17T23:07:48.407Z,4.00
2022-10-17T23:12:51.036Z,4.00
2022-10-17T23:17:53.765Z,3.00
2022-10-17T23:22:58.337Z,2.75
2022-10-17T23:28:01.715Z,2.75
2022-10-17T23:33:05.388Z,3.00
2022-10-17T23:38:09.749Z,3.00
2022-10-17T23:43:12.408Z,4.00
2022-10-17T23:48:15.059Z,3.00
2022-10-17T23:53:19.075Z,3.00
2022-10-17T23:58:21.744Z,3.00
